Time;durP1;ratioP1;P1;durP2;ratioP2;P2;SDS_P1;SDS_P2;PMS_P1;PMS_P2;Temp;Humidity;BMP_temperature;BMP_pressure;BME280_temperature;BME280_humidity;BME280_pressure;Samples;Min_cycle;Max_cycle;Signal;HPM_P1;HPM_P2
2023/08/28 00:00:11;;;;;;;4.45;1.52;;;;;;;;;;6307021;22;20003;-91
2023/08/28 00:02:38;;;;;;;3.90;1.30;;;;;;;;;;6307357;22;20018;-92
2023/08/28 00:05:04;;;;;;;4.63;1.38;;;;;;;;;;6307125;22;20030;-92
2023/08/28 00:07:30;;;;;;;1.95;1.40;;;;;;;;;;6308521;22;20008;-91
2023/08/28 00:09:56;;;;;;;3.20;1.73;;;;;;;;;;6306764;22;20010;-93
2023/08/28 00:12:22;;;;;;;3.70;1.23;;;;;;;;;;6307302;22;20015;-92
2023/08/28 00:14:48;;;;;;;2.03;1.45;;;;;;;;;;6307142;22;20100;-92
2023/08/28 00:17:14;;;;;;;2.05;1.40;;;;;;;;;;6307286;22;20057;-94
2023/08/28 00:19:40;;;;;;;3.17;1.48;;;;;;;;;;6306718;22;20004;-91
2023/08/28 00:22:06;;;;;;;1.23;1.10;;;;;;;;;;6307174;22;19999;-93
2023/08/28 00:24:32;;;;;;;1.50;1.35;;;;;;;;;;6308285;22;20004;-94
2023/08/28 00:26:58;;;;;;;5.10;1.50;;;;;;;;;;6306899;22;20455;-92
2023/08/28 00:29:24;;;;;;;1.45;1.20;;;;;;;;;;6306143;22;20053;-87
2023/08/28 00:31:50;;;;;;;3.85;1.10;;;;;;;;;;6306640;22;20039;-93
2023/08/28 00:34:16;;;;;;;1.60;1.20;;;;;;;;;;6307176;22;20493;-92
2023/08/28 00:36:42;;;;;;;2.20;1.30;;;;;;;;;;6307041;22;20011;-92
2023/08/28 00:39:08;;;;;;;1.38;1.20;;;;;;;;;;6308296;22;20355;-92
2023/08/28 00:41:36;;;;;;;2.10;1.65;;;;;;;;;;6306594;22;19996;-93
2023/08/28 00:44:03;;;;;;;7.75;1.67;;;;;;;;;;6307080;22;20049;-93
2023/08/28 00:46:30;;;;;;;2.78;1.55;;;;;;;;;;6306941;22;20011;-93
2023/08/28 00:48:56;;;;;;;2.30;1.50;;;;;;;;;;6308145;22;20011;-94
2023/08/28 00:51:22;;;;;;;3.65;1.50;;;;;;;;;;6306638;22;20010;-91
2023/08/28 00:53:48;;;;;;;4.57;1.55;;;;;;;;;;6307089;22;20007;-92
2023/08/28 00:56:14;;;;;;;8.52;2.10;;;;;;;;;;6308395;22;20013;-93
2023/08/28 00:58:41;;;;;;;3.40;1.40;;;;;;;;;;6308275;22;20003;-92
2023/08/28 01:01:07;;;;;;;2.00;1.40;;;;;;;;;;6306690;22;20007;-92
2023/08/28 01:03:33;;;;;;;2.03;1.50;;;;;;;;;;6307062;22;20411;-94
2023/08/28 01:06:21;;;;;;;2.20;1.42;;;;;;;;;;6306915;22;20003;-93
2023/08/28 01:09:05;;;;;;;2.55;1.42;;;;;;;;;;6306863;22;20023;-91
2023/08/28 01:11:59;;;;;;;3.00;1.70;;;;;;;;;;6306292;22;20041;-92
2023/08/28 01:14:36;;;;;;;5.97;1.60;;;;;;;;;;6281725;22;20015;-93
2023/08/28 01:17:05;;;;;;;5.43;1.60;;;;;;;;;;6282836;22;20007;-91
2023/08/28 01:19:38;;;;;;;2.65;1.75;;;;;;;;;;6311562;22;20424;-94
2023/08/28 01:22:36;;;;;;;6.28;1.73;;;;;;;;;;6310153;22;20025;-91
2023/08/28 01:25:12;;;;;;;9.10;1.70;;;;;;;;;;6309130;22;20274;-93
2023/08/28 01:27:42;;;;;;;3.38;1.63;;;;;;;;;;6307183;22;20003;-93
2023/08/28 01:30:10;;;;;;;5.53;1.40;;;;;;;;;;6306476;22;20086;-92
2023/08/28 01:32:36;;;;;;;1.70;1.60;;;;;;;;;;6306689;22;20015;-92
2023/08/28 01:35:04;;;;;;;1.85;1.33;;;;;;;;;;6307109;22;20007;-90
2023/08/28 01:37:35;;;;;;;1.85;1.60;;;;;;;;;;6306759;22;20310;-90
2023/08/28 01:40:05;;;;;;;13.10;1.92;;;;;;;;;;6307659;22;20003;-91
2023/08/28 01:42:33;;;;;;;2.08;1.65;;;;;;;;;;6308702;22;20049;-92
2023/08/28 01:45:00;;;;;;;3.40;1.77;;;;;;;;;;6308839;22;20011;-94
2023/08/28 01:47:27;;;;;;;3.75;1.77;;;;;;;;;;6308529;22;20034;-92
2023/08/28 01:49:56;;;;;;;3.00;1.70;;;;;;;;;;6308345;22;20010;-90
2023/08/28 01:52:22;;;;;;;6.47;1.88;;;;;;;;;;6308364;22;20007;-92
2023/08/28 01:54:48;;;;;;;6.68;1.98;;;;;;;;;;6308624;22;20010;-93
2023/08/28 01:57:14;;;;;;;3.22;2.03;;;;;;;;;;6309809;22;20074;-92
2023/08/28 01:59:40;;;;;;;2.45;1.50;;;;;;;;;;6308380;22;20041;-91
2023/08/28 02:02:05;;;;;;;7.50;1.90;;;;;;;;;;6308159;22;20335;-92
2023/08/28 02:04:31;;;;;;;3.92;1.92;;;;;;;;;;6310198;22;20003;-94
2023/08/28 02:06:57;;;;;;;4.15;1.90;;;;;;;;;;6308571;22;20003;-94
2023/08/28 02:09:23;;;;;;;4.45;2.20;;;;;;;;;;6308693;22;20003;-94
2023/08/28 02:11:50;;;;;;;2.97;1.95;;;;;;;;;;6308458;22;20344;-94
2023/08/28 02:14:16;;;;;;;1.67;1.30;;;;;;;;;;6308755;22;20072;-92
2023/08/28 02:16:42;;;;;;;10.65;1.75;;;;;;;;;;6308745;22;20085;-92
2023/08/28 02:19:08;;;;;;;8.30;1.50;;;;;;;;;;6308328;22;20004;-93
2023/08/28 02:21:34;;;;;;;2.50;1.20;;;;;;;;;;6307088;22;20059;-93
2023/08/28 02:24:00;;;;;;;1.10;1.00;;;;;;;;;;6308123;22;20420;-91
2023/08/28 02:26:26;;;;;;;1.77;1.27;;;;;;;;;;6308614;22;20370;-93
2023/08/28 02:28:53;;;;;;;1.30;1.17;;;;;;;;;;6307847;22;20444;-94
2023/08/28 02:31:19;;;;;;;1.65;1.38;;;;;;;;;;6307700;22;20428;-92
2023/08/28 02:33:45;;;;;;;4.38;1.45;;;;;;;;;;6308152;22;20518;-93
2023/08/28 02:36:11;;;;;;;1.48;1.38;;;;;;;;;;6308356;22;20003;-93
2023/08/28 02:38:37;;;;;;;1.63;1.30;;;;;;;;;;6307969;22;20003;-92
2023/08/28 02:41:09;;;;;;;4.57;1.60;;;;;;;;;;6307612;22;19996;-94
2023/08/28 02:43:35;;;;;;;3.85;1.30;;;;;;;;;;6307961;22;20018;-93
2023/08/28 02:46:02;;;;;;;1.38;1.20;;;;;;;;;;6308150;22;20511;-91
2023/08/28 02:48:28;;;;;;;4.70;1.45;;;;;;;;;;6308050;22;20011;-92
2023/08/28 02:50:54;;;;;;;4.57;1.75;;;;;;;;;;6308912;22;20380;-92
2023/08/28 02:53:20;;;;;;;1.90;1.15;;;;;;;;;;6308077;22;20018;-93
2023/08/28 02:56:06;;;;;;;6.07;2.03;;;;;;;;;;6308111;22;20006;-92
2023/08/28 02:58:32;;;;;;;5.40;1.63;;;;;;;;;;6307827;22;20007;-94
2023/08/28 03:00:58;;;;;;;4.75;1.35;;;;;;;;;;6307765;22;20003;-94
2023/08/28 03:03:24;;;;;;;2.45;1.30;;;;;;;;;;6308082;22;20324;-92
2023/08/28 03:05:50;;;;;;;3.75;1.30;;;;;;;;;;6308520;22;19999;-91
2023/08/28 03:08:16;;;;;;;10.73;1.60;;;;;;;;;;6308039;22;20010;-94
2023/08/28 03:10:41;;;;;;;3.45;1.25;;;;;;;;;;6307447;22;20011;-94
2023/08/28 03:13:07;;;;;;;5.00;1.40;;;;;;;;;;6307429;22;20018;-93
2023/08/28 03:15:33;;;;;;;1.90;1.60;;;;;;;;;;6307743;22;20008;-94
2023/08/28 03:18:00;;;;;;;2.10;1.30;;;;;;;;;;6309595;22;20006;-93
2023/08/28 03:20:26;;;;;;;1.77;1.17;;;;;;;;;;6307094;22;20011;-92
2023/08/28 03:22:52;;;;;;;2.42;1.50;;;;;;;;;;6310193;22;20052;-94
2023/08/28 03:25:17;;;;;;;2.13;1.25;;;;;;;;;;6309427;22;20391;-92
2023/08/28 03:27:43;;;;;;;1.38;1.20;;;;;;;;;;6308095;22;20010;-94
2023/08/28 03:30:10;;;;;;;3.35;1.35;;;;;;;;;;6307764;22;19999;-94
2023/08/28 03:32:36;;;;;;;2.70;1.40;;;;;;;;;;6307822;22;20019;-94
2023/08/28 03:35:02;;;;;;;7.75;1.42;;;;;;;;;;6307604;22;20098;-92
2023/08/28 03:37:28;;;;;;;2.60;1.65;;;;;;;;;;6307614;22;20524;-93
2023/08/28 03:39:54;;;;;;;2.00;1.40;;;;;;;;;;6307006;22;20097;-93
2023/08/28 03:42:20;;;;;;;2.90;1.50;;;;;;;;;;6307496;22;20030;-94
2023/08/28 03:44:46;;;;;;;5.30;1.48;;;;;;;;;;6307310;22;20011;-95
2023/08/28 03:47:12;;;;;;;3.05;1.50;;;;;;;;;;6308008;22;20396;-93
2023/08/28 03:49:38;;;;;;;2.17;1.23;;;;;;;;;;6307323;22;20030;-93
2023/08/28 03:52:04;;;;;;;2.78;1.30;;;;;;;;;;6308843;22;20083;-91
2023/08/28 03:54:30;;;;;;;1.95;1.20;;;;;;;;;;6307504;22;19999;-93
2023/08/28 03:56:56;;;;;;;4.63;2.28;;;;;;;;;;6306861;22;20003;-91
2023/08/28 03:59:22;;;;;;;4.38;1.33;;;;;;;;;;6307249;22;20003;-91
2023/08/28 04:01:48;;;;;;;4.15;1.60;;;;;;;;;;6306883;22;20049;-93
2023/08/28 04:04:16;;;;;;;2.30;1.52;;;;;;;;;;6306702;22;20030;-90
2023/08/28 04:06:42;;;;;;;1.60;1.50;;;;;;;;;;6307255;22;20026;-89
2023/08/28 04:09:08;;;;;;;2.10;1.38;;;;;;;;;;6307323;22;20324;-91
2023/08/28 04:11:34;;;;;;;5.90;1.80;;;;;;;;;;6306498;22;20011;-89
2023/08/28 04:14:01;;;;;;;4.68;1.60;;;;;;;;;;6306894;22;20003;-91
2023/08/28 04:16:27;;;;;;;1.60;1.40;;;;;;;;;;6306833;22;20310;-92
2023/08/28 04:18:53;;;;;;;2.15;1.40;;;;;;;;;;6307139;22;20029;-92
2023/08/28 04:21:19;;;;;;;3.20;1.73;;;;;;;;;;6307001;22;20061;-91
2023/08/28 04:23:45;;;;;;;1.73;1.30;;;;;;;;;;6306936;22;20497;-92
2023/08/28 04:26:11;;;;;;;2.58;1.38;;;;;;;;;;6307018;22;20039;-92
2023/08/28 04:28:37;;;;;;;2.33;1.85;;;;;;;;;;6307120;22;20059;-93
2023/08/28 04:31:03;;;;;;;3.15;1.70;;;;;;;;;;6306806;22;20003;-93
2023/08/28 04:33:30;;;;;;;2.67;1.80;;;;;;;;;;6306987;22;20015;-93
2023/08/28 04:35:56;;;;;;;3.13;1.83;;;;;;;;;;6307241;22;20031;-94
2023/08/28 04:38:25;;;;;;;6.65;2.20;;;;;;;;;;6307204;22;19999;-92
2023/08/28 04:40:51;;;;;;;3.90;1.52;;;;;;;;;;6307019;22;20039;-93
2023/08/28 04:43:17;;;;;;;1.60;1.50;;;;;;;;;;6308400;22;20011;-92
2023/08/28 04:45:43;;;;;;;3.55;1.80;;;;;;;;;;6306874;22;20086;-93
2023/08/28 04:48:10;;;;;;;4.22;2.20;;;;;;;;;;6306975;22;20007;-95
2023/08/28 04:50:36;;;;;;;3.65;2.13;;;;;;;;;;6307359;22;20102;-92
2023/08/28 04:53:02;;;;;;;5.40;1.95;;;;;;;;;;6307755;22;20022;-93
2023/08/28 04:55:28;;;;;;;4.63;1.80;;;;;;;;;;6307188;22;19999;-93
2023/08/28 04:57:54;;;;;;;3.85;1.75;;;;;;;;;;6306874;22;20007;-92
2023/08/28 05:00:20;;;;;;;4.00;2.20;;;;;;;;;;6307158;22;20007;-94
2023/08/28 05:02:46;;;;;;;3.53;2.30;;;;;;;;;;6307149;22;20344;-95
2023/08/28 05:05:12;;;;;;;3.58;2.00;;;;;;;;;;6306962;22;20056;-93
2023/08/28 05:07:38;;;;;;;2.67;1.73;;;;;;;;;;6308458;22;19999;-95
2023/08/28 05:10:04;;;;;;;4.50;1.85;;;;;;;;;;6306982;22;20086;-95
2023/08/28 05:12:30;;;;;;;3.83;1.83;;;;;;;;;;6306772;22;20007;-95
2023/08/28 05:14:56;;;;;;;6.18;2.03;;;;;;;;;;6307798;22;20014;-92
2023/08/28 05:17:22;;;;;;;9.13;2.70;;;;;;;;;;6308467;22;20065;-93
2023/08/28 05:19:48;;;;;;;3.92;2.03;;;;;;;;;;6310584;22;20000;-94
2023/08/28 05:22:14;;;;;;;4.43;2.38;;;;;;;;;;6309134;22;20022;-94
2023/08/28 05:24:40;;;;;;;2.15;1.77;;;;;;;;;;6309127;22;20003;-95
2023/08/28 05:27:08;;;;;;;3.75;1.70;;;;;;;;;;6309123;22;20366;-94
2023/08/28 05:29:34;;;;;;;5.45;2.03;;;;;;;;;;6311257;22;20483;-95
2023/08/28 05:32:00;;;;;;;5.60;2.15;;;;;;;;;;6310318;22;20003;-94
2023/08/28 05:34:26;;;;;;;2.33;1.60;;;;;;;;;;6309095;22;20007;-95
2023/08/28 05:36:52;;;;;;;4.95;2.42;;;;;;;;;;6308771;22;20086;-94
2023/08/28 05:39:18;;;;;;;4.80;1.92;;;;;;;;;;6308475;22;20064;-93
2023/08/28 05:41:43;;;;;;;2.85;1.83;;;;;;;;;;6308970;22;20010;-93
2023/08/28 05:44:09;;;;;;;3.00;1.77;;;;;;;;;;6308207;22;20011;-93
2023/08/28 05:46:35;;;;;;;10.55;2.00;;;;;;;;;;6309848;22;20013;-94
2023/08/28 05:49:02;;;;;;;3.67;2.00;;;;;;;;;;6308471;22;20083;-93
2023/08/28 05:51:28;;;;;;;4.00;2.08;;;;;;;;;;6308695;22;20010;-94
2023/08/28 05:53:54;;;;;;;3.55;1.67;;;;;;;;;;6308587;22;20007;-94
2023/08/28 05:56:20;;;;;;;2.25;1.30;;;;;;;;;;6309897;22;20125;-95
2023/08/28 05:58:46;;;;;;;3.88;1.27;;;;;;;;;;6308635;22;20011;-96
2023/08/28 06:01:12;;;;;;;2.65;1.45;;;;;;;;;;6310378;22;20003;-96
2023/08/28 06:03:38;;;;;;;5.78;1.35;;;;;;;;;;6308568;22;20022;-95
2023/08/28 06:06:04;;;;;;;5.40;1.73;;;;;;;;;;6309424;22;19999;-95
2023/08/28 06:08:30;;;;;;;6.45;1.42;;;;;;;;;;6308190;22;20030;-94
2023/08/28 06:10:56;;;;;;;2.60;1.35;;;;;;;;;;6308714;22;20007;-94
2023/08/28 06:13:22;;;;;;;3.47;1.30;;;;;;;;;;6308389;22;20081;-94
2023/08/28 06:15:48;;;;;;;3.58;1.55;;;;;;;;;;6308737;22;20428;-95
2023/08/28 06:18:14;;;;;;;2.92;1.42;;;;;;;;;;6309020;22;20013;-96
2023/08/28 06:20:40;;;;;;;3.95;1.75;;;;;;;;;;6308350;22;20069;-94
2023/08/28 06:23:06;;;;;;;2.08;1.63;;;;;;;;;;6308792;22;20070;-95
2023/08/28 06:25:32;;;;;;;6.20;2.20;;;;;;;;;;6308221;22;20034;-95
2023/08/28 06:27:58;;;;;;;3.42;2.08;;;;;;;;;;6308312;22;20086;-94
2023/08/28 06:30:24;;;;;;;4.18;1.75;;;;;;;;;;6308292;22;20003;-93
2023/08/28 06:32:50;;;;;;;3.80;1.70;;;;;;;;;;6308317;22;20022;-94
2023/08/28 06:35:16;;;;;;;3.08;1.50;;;;;;;;;;6309618;22;19999;-94
2023/08/28 06:37:42;;;;;;;2.50;1.65;;;;;;;;;;6308131;22;20035;-94
2023/08/28 06:40:09;;;;;;;3.45;1.88;;;;;;;;;;6307853;22;20007;-93
2023/08/28 06:42:35;;;;;;;2.88;1.70;;;;;;;;;;6308372;22;20006;-92
2023/08/28 06:45:01;;;;;;;3.42;1.50;;;;;;;;;;6308143;22;20031;-95
2023/08/28 06:47:27;;;;;;;4.43;2.00;;;;;;;;;;6307922;22;20011;-90
2023/08/28 06:49:53;;;;;;;6.25;1.73;;;;;;;;;;6307859;22;20031;-93
2023/08/28 06:52:19;;;;;;;4.63;1.65;;;;;;;;;;6308627;22;20309;-92
2023/08/28 06:54:45;;;;;;;3.10;1.70;;;;;;;;;;6307720;22;20011;-93
2023/08/28 06:57:11;;;;;;;7.88;2.30;;;;;;;;;;6307791;22;20333;-92
2023/08/28 06:59:37;;;;;;;2.33;2.00;;;;;;;;;;6307820;22;20013;-92
2023/08/28 07:02:03;;;;;;;5.03;1.50;;;;;;;;;;6308017;22;20008;-93
2023/08/28 07:04:29;;;;;;;5.03;2.15;;;;;;;;;;6308024;22;20003;-92
2023/08/28 07:06:55;;;;;;;2.13;1.90;;;;;;;;;;6309063;22;20007;-93
2023/08/28 07:09:21;;;;;;;3.30;2.42;;;;;;;;;;6307705;22;20006;-92
2023/08/28 07:11:47;;;;;;;6.57;1.85;;;;;;;;;;6307298;22;20559;-93
2023/08/28 07:14:14;;;;;;;5.90;2.08;;;;;;;;;;6308197;22;19999;-94
2023/08/28 07:16:40;;;;;;;3.08;2.00;;;;;;;;;;6309220;22;20049;-93
2023/08/28 07:19:07;;;;;;;2.85;1.90;;;;;;;;;;6307629;22;20014;-94
2023/08/28 07:21:33;;;;;;;4.63;2.17;;;;;;;;;;6307772;22;20310;-94
2023/08/28 07:23:59;;;;;;;3.55;2.00;;;;;;;;;;6308057;22;20035;-95
2023/08/28 07:26:25;;;;;;;2.05;1.70;;;;;;;;;;6307722;22;20014;-94
2023/08/28 07:28:51;;;;;;;4.03;1.90;;;;;;;;;;6307402;22;20391;-95
2023/08/28 07:31:17;;;;;;;7.20;2.10;;;;;;;;;;6307417;22;20034;-95
2023/08/28 07:33:43;;;;;;;10.65;2.00;;;;;;;;;;6310421;22;20018;-93
2023/08/28 07:36:09;;;;;;;3.60;2.15;;;;;;;;;;6309063;22;20031;-95
2023/08/28 07:38:35;;;;;;;3.50;1.80;;;;;;;;;;6307428;22;20041;-95
2023/08/28 07:41:01;;;;;;;3.53;2.05;;;;;;;;;;6309244;22;20543;-95
2023/08/28 07:43:27;;;;;;;3.75;1.77;;;;;;;;;;6307801;22;20022;-95
2023/08/28 07:45:53;;;;;;;4.30;2.10;;;;;;;;;;6307631;22;20010;-94
2023/08/28 07:48:19;;;;;;;6.55;2.28;;;;;;;;;;6307610;22;20091;-95
2023/08/28 07:50:45;;;;;;;2.95;2.17;;;;;;;;;;6307883;22;20031;-96
2023/08/28 07:53:12;;;;;;;4.10;2.28;;;;;;;;;;6307609;22;20003;-92
2023/08/28 07:55:38;;;;;;;5.80;1.98;;;;;;;;;;6307757;22;20030;-94
2023/08/28 07:58:04;;;;;;;7.38;2.20;;;;;;;;;;6307432;22;20437;-94
2023/08/28 08:00:34;;;;;;;4.13;2.38;;;;;;;;;;6307469;22;20003;-93
2023/08/28 08:03:00;;;;;;;2.78;1.77;;;;;;;;;;6307163;22;20000;-92
2023/08/28 08:05:26;;;;;;;5.00;2.22;;;;;;;;;;6307865;22;20421;-93
2023/08/28 08:07:53;;;;;;;12.23;2.13;;;;;;;;;;6307248;22;20328;-93
2023/08/28 08:10:19;;;;;;;2.28;2.08;;;;;;;;;;6307365;22;20090;-93
2023/08/28 08:12:45;;;;;;;8.55;2.15;;;;;;;;;;6307104;22;20366;-93
2023/08/28 08:15:11;;;;;;;2.78;1.98;;;;;;;;;;6307569;22;19999;-94
2023/08/28 08:17:37;;;;;;;4.22;2.05;;;;;;;;;;6307164;22;20003;-94
2023/08/28 08:20:10;;;;;;;3.50;2.17;;;;;;;;;;6308690;22;20010;-94
2023/08/28 08:22:37;;;;;;;5.28;2.28;;;;;;;;;;6308684;22;20498;-92
2023/08/28 08:25:03;;;;;;;4.10;2.17;;;;;;;;;;6307678;22;20014;-93
2023/08/28 08:27:29;;;;;;;4.65;2.60;;;;;;;;;;6307067;22;20011;-92
2023/08/28 08:29:55;;;;;;;7.25;2.33;;;;;;;;;;6307112;22;20004;-92
2023/08/28 08:32:21;;;;;;;2.80;2.20;;;;;;;;;;6307210;22;20495;-92
2023/08/28 08:34:50;;;;;;;6.72;2.17;;;;;;;;;;6307332;22;20003;-94
2023/08/28 08:37:16;;;;;;;4.03;2.35;;;;;;;;;;6307330;22;20095;-93
2023/08/28 08:39:43;;;;;;;4.20;2.30;;;;;;;;;;6307331;22;20010;-93
2023/08/28 08:42:09;;;;;;;4.90;2.30;;;;;;;;;;6307150;22;20003;-93
2023/08/28 08:44:35;;;;;;;6.88;2.28;;;;;;;;;;6306911;22;20018;-93
2023/08/28 08:47:04;;;;;;;5.60;2.30;;;;;;;;;;6307458;22;20003;-94
2023/08/28 08:49:33;;;;;;;3.08;2.25;;;;;;;;;;6309865;22;19999;-93
2023/08/28 08:52:06;;;;;;;3.20;2.00;;;;;;;;;;6309197;22;20451;-93
2023/08/28 08:54:37;;;;;;;2.83;1.90;;;;;;;;;;6309113;22;20428;-93
2023/08/28 08:57:08;;;;;;;4.43;2.28;;;;;;;;;;6310051;22;19999;-93
2023/08/28 08:59:35;;;;;;;4.68;2.00;;;;;;;;;;6310354;22;20007;-94
2023/08/28 09:02:02;;;;;;;7.70;2.83;;;;;;;;;;6308904;22;20003;-94
2023/08/28 09:04:29;;;;;;;4.47;2.58;;;;;;;;;;6308834;22;20010;-94
2023/08/28 09:06:56;;;;;;;6.47;2.33;;;;;;;;;;6310729;22;20074;-94
2023/08/28 09:09:23;;;;;;;6.43;3.38;;;;;;;;;;6309006;22;20060;-95
2023/08/28 09:11:49;;;;;;;5.32;2.65;;;;;;;;;;6308711;22;20041;-93
2023/08/28 09:14:15;;;;;;;5.88;2.30;;;;;;;;;;6309042;22;20007;-93
2023/08/28 09:16:41;;;;;;;2.80;2.33;;;;;;;;;;6309111;22;20428;-91
2023/08/28 09:19:08;;;;;;;6.35;1.83;;;;;;;;;;6309203;22;20563;-92
2023/08/28 09:21:35;;;;;;;6.72;2.35;;;;;;;;;;6309161;22;19999;-93
2023/08/28 09:24:01;;;;;;;3.78;2.10;;;;;;;;;;6310881;22;20010;-94
2023/08/28 09:26:27;;;;;;;8.35;1.77;;;;;;;;;;6309365;22;20049;-93
2023/08/28 09:29:04;;;;;;;2.22;1.73;;;;;;;;;;6308617;22;20035;-92
2023/08/28 09:31:33;;;;;;;2.63;1.52;;;;;;;;;;6309773;22;20034;-93
2023/08/28 09:34:00;;;;;;;3.63;2.00;;;;;;;;;;6311950;22;20007;-93
2023/08/28 09:36:26;;;;;;;5.93;2.10;;;;;;;;;;6310028;22;20014;-92
2023/08/28 09:38:52;;;;;;;2.97;1.80;;;;;;;;;;6308678;22;20007;-92
2023/08/28 09:41:18;;;;;;;3.97;2.10;;;;;;;;;;6308459;22;20010;-93
2023/08/28 09:43:44;;;;;;;5.07;2.63;;;;;;;;;;6308357;22;20011;-94
2023/08/28 09:46:10;;;;;;;3.80;2.00;;;;;;;;;;6309050;22;20003;-95
2023/08/28 09:48:36;;;;;;;6.85;1.52;;;;;;;;;;6308646;22;20015;-93
2023/08/28 09:51:06;;;;;;;2.25;1.77;;;;;;;;;;6294629;22;20379;-92
2023/08/28 09:53:32;;;;;;;2.63;1.95;;;;;;;;;;6277283;22;20038;-91
2023/08/28 09:55:59;;;;;;;4.38;1.88;;;;;;;;;;6279158;22;20004;-93
2023/08/28 09:58:25;;;;;;;5.47;1.80;;;;;;;;;;6277883;22;20004;-93
2023/08/28 10:00:52;;;;;;;5.32;2.20;;;;;;;;;;6276711;22;20026;-95
2023/08/28 10:03:20;;;;;;;3.47;2.20;;;;;;;;;;6277576;22;20014;-93
2023/08/28 10:05:47;;;;;;;3.63;2.00;;;;;;;;;;6277868;22;20034;-94
2023/08/28 10:08:14;;;;;;;4.88;2.08;;;;;;;;;;6279402;22;20035;-92
2023/08/28 10:10:41;;;;;;;2.63;1.30;;;;;;;;;;6276986;22;20008;-92
2023/08/28 10:13:10;;;;;;;3.13;1.65;;;;;;;;;;6279010;22;20011;-93
2023/08/28 10:15:41;;;;;;;4.50;2.33;;;;;;;;;;6278116;22;20034;-96
2023/08/28 10:18:12;;;;;;;3.03;1.60;;;;;;;;;;6278027;22;20031;-95
2023/08/28 10:20:39;;;;;;;3.33;1.77;;;;;;;;;;6277885;22;20034;-95
2023/08/28 10:23:06;;;;;;;3.40;1.92;;;;;;;;;;6279134;22;20357;-96
2023/08/28 10:25:33;;;;;;;2.95;1.40;;;;;;;;;;6277998;22;20004;-95
2023/08/28 10:27:59;;;;;;;3.28;1.85;;;;;;;;;;6278827;22;20034;-95
2023/08/28 10:30:27;;;;;;;3.40;1.50;;;;;;;;;;6277718;22;19999;-96
2023/08/28 10:32:54;;;;;;;2.00;1.58;;;;;;;;;;6277687;22;20073;-96
2023/08/28 10:35:21;;;;;;;3.28;1.50;;;;;;;;;;6277820;22;20425;-95
2023/08/28 10:37:48;;;;;;;2.15;1.58;;;;;;;;;;6277796;22;20007;-95
2023/08/28 10:40:17;;;;;;;2.22;1.60;;;;;;;;;;6277973;22;20008;-94
2023/08/28 10:42:43;;;;;;;3.90;1.42;;;;;;;;;;6278079;22;20091;-95
2023/08/28 10:45:09;;;;;;;2.92;2.00;;;;;;;;;;6278238;22;20004;-94
2023/08/28 10:47:37;;;;;;;2.95;1.75;;;;;;;;;;6280897;22;20007;-94
2023/08/28 10:50:05;;;;;;;5.03;2.35;;;;;;;;;;6277980;22;20007;-96
2023/08/28 10:52:32;;;;;;;6.22;1.77;;;;;;;;;;6279628;22;20010;-94
2023/08/28 10:55:03;;;;;;;4.10;2.08;;;;;;;;;;6278590;22;20421;-89
2023/08/28 10:57:29;;;;;;;4.47;1.65;;;;;;;;;;6281330;22;20485;-95
2023/08/28 10:59:56;;;;;;;1.40;1.30;;;;;;;;;;6279990;22;20004;-95
2023/08/28 11:02:22;;;;;;;2.45;1.60;;;;;;;;;;6281044;22;20386;-94
2023/08/28 11:04:48;;;;;;;1.70;1.23;;;;;;;;;;6279693;22;20025;-96
2023/08/28 11:07:27;;;;;;;1.30;1.10;;;;;;;;;;6280254;22;20004;-93
2023/08/28 11:10:13;;;;;;;3.17;1.90;;;;;;;;;;6281510;22;20004;-96
2023/08/28 11:12:54;;;;;;;3.13;1.42;;;;;;;;;;6279332;22;20376;-94
2023/08/28 11:15:27;;;;;;;3.95;1.60;;;;;;;;;;6280684;22;20432;-93
2023/08/28 11:18:12;;;;;;;3.03;1.85;;;;;;;;;;6279665;22;20014;-92
2023/08/28 11:20:38;;;;;;;3.22;1.55;;;;;;;;;;6281016;22;20082;-95
2023/08/28 11:23:04;;;;;;;2.35;1.58;;;;;;;;;;6279147;22;20000;-95
2023/08/28 11:25:38;;;;;;;2.30;1.75;;;;;;;;;;6281993;22;20655;-95
2023/08/28 11:28:04;;;;;;;3.72;1.60;;;;;;;;;;6279968;22;20004;-92
2023/08/28 11:30:30;;;;;;;2.60;1.80;;;;;;;;;;6280831;22;20004;-93
2023/08/28 11:32:56;;;;;;;7.53;1.90;;;;;;;;;;6280076;22;20467;-92
2023/08/28 11:35:27;;;;;;;2.53;1.80;;;;;;;;;;6280646;22;20062;-93
2023/08/28 11:37:55;;;;;;;3.30;1.70;;;;;;;;;;6280750;22;20033;-96
2023/08/28 11:40:23;;;;;;;3.22;1.40;;;;;;;;;;6281258;22;20004;-95
2023/08/28 11:42:50;;;;;;;2.50;1.50;;;;;;;;;;6284208;22;20015;-94
2023/08/28 11:45:24;;;;;;;5.45;2.17;;;;;;;;;;6285027;22;20008;-93
2023/08/28 11:47:51;;;;;;;3.22;1.50;;;;;;;;;;6283577;22;20012;-95
2023/08/28 11:50:20;;;;;;;2.75;1.73;;;;;;;;;;6282090;22;20140;-93
2023/08/28 11:52:49;;;;;;;2.17;1.67;;;;;;;;;;6282307;22;20012;-96
2023/08/28 11:55:15;;;;;;;3.03;1.52;;;;;;;;;;6281413;22;20004;-96
2023/08/28 11:57:43;;;;;;;2.42;1.55;;;;;;;;;;6283485;22;19999;-96
2023/08/28 12:00:14;;;;;;;2.15;1.40;;;;;;;;;;6286164;22;20002;-92
2023/08/28 12:02:42;;;;;;;2.20;1.55;;;;;;;;;;6280302;22;20069;-90
2023/08/28 12:05:08;;;;;;;2.47;1.67;;;;;;;;;;6282180;22;20007;-96
2023/08/28 12:07:36;;;;;;;3.63;1.67;;;;;;;;;;6280465;22;20006;-93
2023/08/28 12:10:04;;;;;;;2.42;1.60;;;;;;;;;;6278830;22;19999;-96
2023/08/28 12:12:31;;;;;;;1.75;1.52;;;;;;;;;;6279920;22;20007;-95
2023/08/28 12:14:57;;;;;;;2.75;1.80;;;;;;;;;;6281470;22;20007;-94
2023/08/28 12:17:28;;;;;;;2.20;1.60;;;;;;;;;;6286364;22;20050;-94
2023/08/28 12:19:54;;;;;;;2.40;1.70;;;;;;;;;;6285928;22;20421;-94
2023/08/28 12:22:21;;;;;;;2.88;1.50;;;;;;;;;;6289386;22;20011;-93
2023/08/28 12:24:48;;;;;;;3.10;2.05;;;;;;;;;;6283080;22;20778;-96
2023/08/28 12:27:14;;;;;;;4.28;1.80;;;;;;;;;;6283415;22;20448;-96
2023/08/28 12:29:41;;;;;;;12.70;2.08;;;;;;;;;;6279912;22;20010;-96
2023/08/28 12:32:09;;;;;;;2.85;1.95;;;;;;;;;;6284724;22;20019;-96
2023/08/28 12:34:37;;;;;;;2.97;1.65;;;;;;;;;;6282763;22;19996;-96
2023/08/28 12:37:26;;;;;;;3.15;1.85;;;;;;;;;;6255636;22;20438;-90
2023/08/28 12:39:53;;;;;;;4.38;2.10;;;;;;;;;;6280543;22;20042;-95
2023/08/28 12:42:20;;;;;;;1.75;1.65;;;;;;;;;;6285075;22;20056;-93
2023/08/28 12:44:46;;;;;;;2.58;1.73;;;;;;;;;;6284153;22;20020;-95
2023/08/28 12:47:22;;;;;;;6.07;1.90;;;;;;;;;;6258959;22;20026;-96
2023/08/28 12:49:49;;;;;;;2.05;1.80;;;;;;;;;;6283471;22;20007;-95
2023/08/28 12:52:26;;;;;;;3.08;1.73;;;;;;;;;;6279803;22;20011;-92
2023/08/28 12:54:57;;;;;;;1.98;1.58;;;;;;;;;;6253822;22;20034;-94
2023/08/28 12:57:24;;;;;;;2.70;2.00;;;;;;;;;;6279131;22;20083;-94
2023/08/28 12:59:50;;;;;;;3.92;2.20;;;;;;;;;;6283327;22;20008;-95
2023/08/28 13:02:16;;;;;;;3.13;1.80;;;;;;;;;;6280792;22;20007;-96
2023/08/28 13:04:43;;;;;;;2.92;1.85;;;;;;;;;;6279192;22;20026;-95
2023/08/28 13:07:09;;;;;;;3.60;2.25;;;;;;;;;;6281453;22;20011;-93
2023/08/28 13:09:35;;;;;;;6.18;2.33;;;;;;;;;;6285521;22;20055;-93
2023/08/28 13:12:01;;;;;;;2.38;1.90;;;;;;;;;;6279739;22;20015;-93
2023/08/28 13:14:28;;;;;;;3.38;1.70;;;;;;;;;;6282668;22;20011;-92
2023/08/28 13:16:54;;;;;;;9.88;2.20;;;;;;;;;;6279975;22;20018;-93
2023/08/28 13:19:21;;;;;;;3.85;1.98;;;;;;;;;;6280862;22;20011;-92
2023/08/28 13:21:52;;;;;;;3.63;1.88;;;;;;;;;;6281253;22;20019;-96
2023/08/28 13:24:21;;;;;;;3.65;1.95;;;;;;;;;;6278874;22;20320;-95
2023/08/28 13:26:47;;;;;;;7.05;1.80;;;;;;;;;;6280799;22;19999;-93
2023/08/28 13:29:13;;;;;;;6.18;2.13;;;;;;;;;;6280512;22;20095;-95
2023/08/28 13:31:39;;;;;;;2.30;1.55;;;;;;;;;;6280971;22;20336;-92
2023/08/28 13:34:05;;;;;;;2.63;1.88;;;;;;;;;;6280473;22;20014;-94
2023/08/28 13:36:36;;;;;;;3.55;1.75;;;;;;;;;;6284924;22;20030;-93
2023/08/28 13:39:03;;;;;;;3.20;1.88;;;;;;;;;;6281290;22;20090;-95
2023/08/28 13:41:29;;;;;;;1.80;1.58;;;;;;;;;;6279773;22;20049;-93
2023/08/28 13:43:55;;;;;;;1.88;1.50;;;;;;;;;;6278378;22;20095;-96
2023/08/28 13:46:21;;;;;;;2.42;1.75;;;;;;;;;;6281216;22;20058;-90
2023/08/28 13:48:47;;;;;;;3.72;1.70;;;;;;;;;;6278413;22;20034;-94
2023/08/28 13:51:13;;;;;;;3.85;1.73;;;;;;;;;;6279799;22;20067;-96
2023/08/28 13:53:39;;;;;;;2.40;1.52;;;;;;;;;;6279340;22;20008;-95
2023/08/28 13:56:05;;;;;;;3.28;1.90;;;;;;;;;;6280347;22;20798;-95
2023/08/28 13:58:31;;;;;;;2.75;2.03;;;;;;;;;;6279233;22;20090;-95
2023/08/28 14:00:58;;;;;;;8.40;2.05;;;;;;;;;;6281543;22;20014;-95
2023/08/28 14:03:26;;;;;;;2.65;2.05;;;;;;;;;;6282826;22;20028;-96
2023/08/28 14:05:52;;;;;;;4.75;2.10;;;;;;;;;;6281174;22;20495;-95
2023/08/28 14:08:18;;;;;;;3.63;2.45;;;;;;;;;;6279695;22;20015;-92
2023/08/28 14:10:46;;;;;;;4.10;1.92;;;;;;;;;;6278207;22;20003;-96
2023/08/28 14:13:12;;;;;;;3.10;2.10;;;;;;;;;;6281180;22;20011;-96
2023/08/28 14:15:38;;;;;;;3.45;2.00;;;;;;;;;;6283689;22;20010;-94
2023/08/28 14:18:04;;;;;;;3.15;2.05;;;;;;;;;;6280389;22;20039;-95
2023/08/28 14:20:35;;;;;;;5.25;2.30;;;;;;;;;;6280680;22;20003;-96
2023/08/28 14:23:02;;;;;;;2.35;1.92;;;;;;;;;;6280290;22;20015;-95
2023/08/28 14:25:32;;;;;;;6.60;1.75;;;;;;;;;;6280255;22;19999;-96
2023/08/28 14:27:58;;;;;;;3.30;1.83;;;;;;;;;;6277945;22;20100;-90
2023/08/28 14:30:24;;;;;;;4.53;2.10;;;;;;;;;;6282336;22;20003;-96
2023/08/28 14:32:50;;;;;;;2.65;1.90;;;;;;;;;;6281542;22;20011;-92
2023/08/28 14:35:17;;;;;;;2.35;1.83;;;;;;;;;;6286357;22;19999;-96
2023/08/28 14:37:43;;;;;;;4.45;1.95;;;;;;;;;;6285037;22;20117;-94
2023/08/28 14:40:09;;;;;;;8.05;2.53;;;;;;;;;;6281528;22;20000;-94
2023/08/28 14:42:36;;;;;;;3.38;1.95;;;;;;;;;;6285813;22;19996;-95